createdAt,value
2017-04-05T00:00:03.306Z,838.32
2017-04-05T00:00:07.730Z,838.32
2017-04-05T00:00:12.037Z,838.33
2017-04-05T00:00:16.351Z,838.3
2017-04-05T00:00:20.777Z,838.3
2017-04-05T00:00:25.206Z,838.27
2017-04-05T00:00:29.518Z,838.27
2017-04-05T00:00:33.949Z,838.26
2017-04-05T00:00:38.384Z,838.28
2017-04-05T00:00:42.691Z,838.29
2017-04-05T00:00:47.004Z,838.3
2017-04-05T00:00:51.317Z,838.33
2017-04-05T00:00:55.742Z,838.34
2017-04-05T00:01:00.045Z,838.31
2017-04-05T00:01:04.487Z,838.33
2017-04-05T00:01:08.910Z,838.3
2017-04-05T00:01:13.224Z,838.34
2017-04-05T00:01:17.647Z,838.33
2017-04-05T00:01:22.075Z,838.33
2017-04-05T00:01:26.511Z,838.33
2017-04-05T00:01:30.815Z,838.36
2017-04-05T00:01:35.128Z,838.33
2017-04-05T00:01:39.445Z,838.35
2017-04-05T00:01:43.872Z,838.29
2017-04-05T00:01:48.295Z,838.34
2017-04-05T00:01:52.720Z,838.37
2017-04-05T00:01:57.147Z,838.35
2017-04-05T00:02:01.575Z,838.34
2017-04-05T00:02:05.880Z,838.35
2017-04-05T00:02:10.313Z,838.35
2017-04-05T00:02:14.388Z,838.36
2017-04-05T00:02:18.701Z,838.36
2017-04-05T00:02:23.127Z,838.35
2017-04-05T00:02:27.550Z,838.36
2017-04-05T00:02:31.742Z,838.37
2017-04-05T00:02:36.171Z,838.38
2017-04-05T00:02:40.591Z,838.38
2017-04-05T00:02:45.014Z,838.36
2017-04-05T00:02:49.079Z,838.38
2017-04-05T00:02:53.410Z,838.4
2017-04-05T00:02:57.834Z,838.4
2017-04-05T00:03:02.357Z,838.37
2017-04-05T00:03:06.778Z,838.41
2017-04-05T00:03:11.089Z,838.38
2017-04-05T00:03:15.517Z,838.4
2017-04-05T00:03:19.941Z,838.41
2017-04-05T00:03:24.401Z,838.39
2017-04-05T00:03:28.589Z,838.37
2017-04-05T00:03:33.017Z,838.33
2017-04-05T00:03:37.445Z,838.36
2017-04-05T00:03:41.750Z,838.4
2017-04-05T00:03:46.177Z,838.36
2017-04-05T00:03:50.482Z,838.37
2017-04-05T00:03:54.908Z,838.4
2017-04-05T00:03:59.326Z,838.39
2017-04-05T00:04:03.757Z,838.39
2017-04-05T00:04:08.067Z,838.42
2017-04-05T00:04:12.495Z,838.4
2017-04-05T00:04:16.914Z,838.37
2017-04-05T00:04:21.228Z,838.38
2017-04-05T00:04:25.647Z,838.44
2017-04-05T00:04:29.963Z,838.44
2017-04-05T00:04:34.272Z,838.43
2017-04-05T00:04:38.697Z,838.43
2017-04-05T00:04:43.005Z,838.42
2017-04-05T00:04:47.432Z,838.43
2017-04-05T00:04:51.856Z,838.45
2017-04-05T00:04:56.280Z,838.44
2017-04-05T00:05:00.715Z,838.46
2017-04-05T00:05:05.023Z,838.46
2017-04-05T00:05:09.449Z,838.45
2017-04-05T00:05:13.877Z,838.44
2017-04-05T00:05:18.070Z,838.48
2017-04-05T00:05:22.166Z,838.5
2017-04-05T00:05:26.595Z,838.45
2017-04-05T00:05:30.907Z,838.45
2017-04-05T00:05:34.993Z,838.45
2017-04-05T00:05:39.422Z,838.44
2017-04-05T00:05:43.738Z,838.49
2017-04-05T00:05:48.059Z,838.5
2017-04-05T00:05:52.381Z,838.47
2017-04-05T00:05:56.810Z,838.46
2017-04-05T00:06:01.007Z,838.44
2017-04-05T00:06:05.451Z,838.46
2017-04-05T00:06:09.678Z,838.51
2017-04-05T00:06:14.104Z,838.46
2017-04-05T00:06:18.297Z,838.46
2017-04-05T00:06:22.735Z,838.48
2017-04-05T00:06:26.934Z,838.45
2017-04-05T00:06:31.363Z,838.47
2017-04-05T00:06:35.793Z,838.47
2017-04-05T00:06:39.878Z,838.45
2017-04-05T00:06:44.318Z,838.47
2017-04-05T00:06:48.758Z,838.48
2017-04-05T00:06:53.069Z,838.45
2017-04-05T00:06:57.381Z,838.47
2017-04-05T00:07:01.697Z,838.45
2017-04-05T00:07:06.015Z,838.42
2017-04-05T00:07:10.334Z,838.44
2017-04-05T00:07:14.769Z,838.42
2017-04-05T00:07:19.198Z,838.43
2017-04-05T00:07:23.531Z,838.41
2017-04-05T00:07:27.735Z,838.41
2017-04-05T00:07:32.056Z,838.39
2017-04-05T00:07:36.377Z,838.39
2017-04-05T00:07:40.575Z,838.44
2017-04-05T00:07:44.786Z,838.42
2017-04-05T00:07:49.222Z,838.45
2017-04-05T00:07:53.415Z,838.39
2017-04-05T00:07:57.838Z,838.4
2017-04-05T00:08:01.919Z,838.44
2017-04-05T00:08:06.118Z,838.42
2017-04-05T00:08:10.551Z,838.33
2017-04-05T00:08:14.747Z,838.31
2017-04-05T00:08:19.058Z,838.33
2017-04-05T00:08:23.375Z,838.33
2017-04-05T00:08:27.601Z,838.3
2017-04-05T00:08:31.912Z,838.3
2017-04-05T00:08:36.347Z,838.29
2017-04-05T00:08:40.696Z,838.34
2017-04-05T00:08:44.900Z,838.35
2017-04-05T00:08:49.329Z,838.33
2017-04-05T00:08:53.412Z,838.32
2017-04-05T00:08:57.520Z,838.3
2017-04-05T00:09:01.831Z,838.34
2017-04-05T00:09:06.261Z,838.35
2017-04-05T00:09:10.579Z,838.3
2017-04-05T00:09:15.045Z,838.32
2017-04-05T00:09:19.247Z,838.33
2017-04-05T00:09:23.437Z,838.29
2017-04-05T00:09:27.748Z,838.27
2017-04-05T00:09:32.081Z,838.28
2017-04-05T00:09:36.299Z,838.27
2017-04-05T00:09:40.734Z,838.29
2017-04-05T00:09:45.047Z,838.27
2017-04-05T00:09:49.481Z,838.28
2017-04-05T00:09:53.678Z,838.26
2017-04-05T00:09:57.875Z,838.23
2017-04-05T00:10:02.460Z,838.22
2017-04-05T00:10:06.898Z,838.22
2017-04-05T00:10:11.339Z,838.23
2017-04-05T00:10:15.542Z,838.24
2017-04-05T00:10:19.979Z,838.21
2017-04-05T00:10:24.300Z,838.22
2017-04-05T00:10:28.743Z,838.21
2017-04-05T00:10:33.054Z,838.2
2017-04-05T00:10:37.367Z,838.23
2017-04-05T00:10:41.685Z,838.2
2017-04-05T00:10:45.890Z,838.2
2017-04-05T00:10:50.095Z,838.2
2017-04-05T00:10:54.524Z,838.17
2017-04-05T00:10:58.956Z,838.18
2017-04-05T00:11:03.276Z,838.17
2017-04-05T00:11:07.476Z,838.17
2017-04-05T00:11:11.789Z,838.19
2017-04-05T00:11:16.226Z,838.16
2017-04-05T00:11:20.651Z,838.16
2017-04-05T00:11:25.092Z,838.14
2017-04-05T00:11:29.311Z,838.22
2017-04-05T00:11:33.749Z,838.18
2017-04-05T00:11:38.059Z,838.18
2017-04-05T00:11:42.493Z,838.19
2017-04-05T00:11:46.920Z,838.19
2017-04-05T00:11:51.350Z,838.16
2017-04-05T00:11:55.663Z,838.15
2017-04-05T00:12:00.096Z,838.14
2017-04-05T00:12:04.708Z,838.16
2017-04-05T00:12:09.014Z,838.15
2017-04-05T00:12:13.442Z,838.16
2017-04-05T00:12:17.758Z,838.16
2017-04-05T00:12:22.076Z,838.14
2017-04-05T00:12:26.274Z,838.17
2017-04-05T00:12:30.704Z,838.16
2017-04-05T00:12:35.140Z,838.15
2017-04-05T00:12:39.562Z,838.17
2017-04-05T00:12:43.868Z,838.16
2017-04-05T00:12:48.296Z,838.15
2017-04-05T00:12:52.607Z,838.14
2017-04-05T00:12:57.031Z,838.15
2017-04-05T00:13:01.476Z,838.14
2017-04-05T00:13:05.905Z,838.14
2017-04-05T00:13:10.327Z,838.14
2017-04-05T00:13:14.753Z,838.12
2017-04-05T00:13:19.177Z,838.13
2017-04-05T00:13:23.642Z,838.13
2017-04-05T00:13:27.944Z,838.15
2017-04-05T00:13:32.374Z,838.16
2017-04-05T00:13:36.800Z,838.15
2017-04-05T00:13:41.259Z,838.14
2017-04-05T00:13:45.683Z,838.12
2017-04-05T00:13:50.109Z,838.12
2017-04-05T00:13:54.531Z,838.13
2017-04-05T00:13:58.957Z,838.11
2017-04-05T00:14:03.383Z,838.14
2017-04-05T00:14:07.803Z,838.12
2017-04-05T00:14:12.224Z,838.13
2017-04-05T00:14:16.653Z,838.13
2017-04-05T00:14:20.959Z,838.14
2017-04-05T00:14:25.265Z,838.13
2017-04-05T00:14:29.687Z,838.08
2017-04-05T00:14:33.997Z,838.09
2017-04-05T00:14:38.446Z,838.12
2017-04-05T00:14:42.752Z,838.12
2017-04-05T00:14:47.175Z,838.12
2017-04-05T00:14:51.600Z,838.1
2017-04-05T00:14:56.019Z,838.12
2017-04-05T00:15:00.445Z,838.13
2017-04-05T00:15:04.869Z,838.11
2017-04-05T00:15:09.296Z,838.11
2017-04-05T00:15:13.752Z,838.1
2017-04-05T00:15:18.102Z,838.13
2017-04-05T00:15:22.542Z,838.1
2017-04-05T00:15:26.971Z,838.11
2017-04-05T00:15:31.277Z,838.1
2017-04-05T00:15:35.712Z,838.12
2017-04-05T00:15:40.141Z,838.09
2017-04-05T00:15:44.329Z,838.1
2017-04-05T00:15:48.756Z,838.11
2017-04-05T00:15:53.062Z,838.09
2017-04-05T00:15:57.486Z,838.1
2017-04-05T00:16:01.945Z,838.09
2017-04-05T00:16:06.403Z,838.11
2017-04-05T00:16:10.832Z,838.12
2017-04-05T00:16:15.262Z,838.1
2017-04-05T00:16:19.454Z,838.08
2017-04-05T00:16:23.892Z,838.08
2017-04-05T00:16:28.204Z,838.11
2017-04-05T00:16:32.507Z,838.11
2017-04-05T00:16:36.930Z,838.07
2017-04-05T00:16:41.357Z,838.07
2017-04-05T00:16:45.544Z,838.09
2017-04-05T00:16:49.970Z,838.07
2017-04-05T00:16:54.278Z,838.09
2017-04-05T00:16:58.715Z,838.09
2017-04-05T00:17:03.291Z,838.06
2017-04-05T00:17:07.478Z,838.08
2017-04-05T00:17:11.902Z,838.06
2017-04-05T00:17:16.331Z,838.07
2017-04-05T00:17:20.751Z,838.06
2017-04-05T00:17:25.172Z,838.11
2017-04-05T00:17:29.598Z,838.07
2017-04-05T00:17:34.037Z,838.05
2017-04-05T00:17:38.461Z,838.08
2017-04-05T00:17:42.885Z,838.05
2017-04-05T00:17:47.199Z,838.06
2017-04-05T00:17:51.633Z,838.07
2017-04-05T00:17:56.053Z,838.03
2017-04-05T00:18:00.359Z,838.08
2017-04-05T00:18:04.771Z,838.03
2017-04-05T00:18:08.964Z,838.06
2017-04-05T00:18:13.388Z,838.07
2017-04-05T00:18:17.809Z,838.05
2017-04-05T00:18:22.116Z,838.06
2017-04-05T00:18:26.534Z,838.05
2017-04-05T00:18:30.952Z,838.06
2017-04-05T00:18:35.272Z,838.03
2017-04-05T00:18:39.708Z,838.05
2017-04-05T00:18:44.131Z,838.03
2017-04-05T00:18:48.560Z,838.07
2017-04-05T00:18:52.990Z,838.05
2017-04-05T00:18:57.181Z,838.04
2017-04-05T00:19:01.841Z,838.03
2017-04-05T00:19:06.265Z,838.06
2017-04-05T00:19:10.686Z,838.05
2017-04-05T00:19:15.110Z,838.06
2017-04-05T00:19:19.532Z,838.01
2017-04-05T00:19:23.951Z,838.07
2017-04-05T00:19:28.372Z,838.07
2017-04-05T00:19:32.561Z,838
2017-04-05T00:19:36.994Z,838.02
2017-04-05T00:19:41.438Z,838.05
2017-04-05T00:19:45.860Z,838.05
2017-04-05T00:19:50.282Z,838.05
2017-04-05T00:19:54.589Z,838.04
2017-04-05T00:19:59.018Z,838.04
2017-04-05T00:20:03.330Z,838.05
2017-04-05T00:20:07.751Z,838.05
2017-04-05T00:20:11.827Z,838.04
2017-04-05T00:20:16.253Z,838.04
2017-04-05T00:20:20.678Z,838.04
2017-04-05T00:20:25.100Z,837.99
2017-04-05T00:20:29.411Z,838.08
2017-04-05T00:20:33.835Z,838.07
2017-04-05T00:20:38.258Z,838.03
2017-04-05T00:20:42.680Z,838
2017-04-05T00:20:46.991Z,838.01
2017-04-05T00:20:51.186Z,838
2017-04-05T00:20:55.494Z,838.02
2017-04-05T00:20:59.920Z,837.99
2017-04-05T00:21:04.347Z,837.97
2017-04-05T00:21:08.779Z,838.01
2017-04-05T00:21:13.206Z,838.04
2017-04-05T00:21:17.638Z,838.04
2017-04-05T00:21:22.063Z,838.04
2017-04-05T00:21:26.372Z,838.07
2017-04-05T00:21:30.800Z,838.06
2017-04-05T00:21:34.991Z,838.06
2017-04-05T00:21:39.445Z,838.05
2017-04-05T00:21:43.869Z,838.04
2017-04-05T00:21:47.944Z,838.04
2017-04-05T00:21:52.374Z,838.03
2017-04-05T00:21:56.796Z,838.03
2017-04-05T00:22:01.222Z,838.02
2017-04-05T00:22:05.412Z,838.01
2017-04-05T00:22:09.738Z,838.04
2017-04-05T00:22:14.169Z,838
2017-04-05T00:22:18.601Z,838.01
2017-04-05T00:22:23.036Z,838.06
2017-04-05T00:22:27.345Z,838.04
2017-04-05T00:22:31.772Z,838.06
2017-04-05T00:22:36.193Z,838
2017-04-05T00:22:40.507Z,838.03
2017-04-05T00:22:44.947Z,838.04
2017-04-05T00:22:49.366Z,838.07
2017-04-05T00:22:53.784Z,838.04
2017-04-05T00:22:58.205Z,838.05
2017-04-05T00:23:02.683Z,838.02
2017-04-05T00:23:06.870Z,838.01
2017-04-05T00:23:11.297Z,838.04
2017-04-05T00:23:15.724Z,838.03
2017-04-05T00:23:20.149Z,838.04
2017-04-05T00:23:24.572Z,838.02
2017-04-05T00:23:28.874Z,838.04
2017-04-05T00:23:33.179Z,838.04
2017-04-05T00:23:37.630Z,838.05
2017-04-05T00:23:42.051Z,838.07
2017-04-05T00:23:46.476Z,838.05
2017-04-05T00:23:50.899Z,838.03
2017-04-05T00:23:55.336Z,838.03
2017-04-05T00:23:59.784Z,838.07
2017-04-05T00:24:04.408Z,838.03
2017-04-05T00:24:08.718Z,838
2017-04-05T00:24:13.183Z,838.01
2017-04-05T00:24:17.372Z,838
2017-04-05T00:24:21.803Z,838.03
2017-04-05T00:24:26.229Z,838.05
2017-04-05T00:24:30.539Z,838.01
2017-04-05T00:24:34.990Z,838.01
2017-04-05T00:24:39.419Z,838.06
2017-04-05T00:24:43.851Z,838
2017-04-05T00:24:48.166Z,838.01
2017-04-05T00:24:52.619Z,838
2017-04-05T00:24:57.040Z,838.01
2017-04-05T00:25:01.459Z,837.98
2017-04-05T00:25:05.953Z,838.05
2017-04-05T00:25:10.389Z,838.04
2017-04-05T00:25:14.696Z,838.04
2017-04-05T00:25:19.121Z,838.07
2017-04-05T00:25:23.576Z,838.03
2017-04-05T00:25:28.001Z,838.04
2017-04-05T00:25:32.436Z,838.05
2017-04-05T00:25:36.892Z,838.04
2017-04-05T00:25:41.201Z,838.05
2017-04-05T00:25:45.507Z,838.03
2017-04-05T00:25:49.936Z,838.05
2017-04-05T00:25:54.276Z,838.04
2017-04-05T00:25:58.582Z,838.03
2017-04-05T00:26:03.013Z,837.99
2017-04-05T00:26:07.323Z,838
2017-04-05T00:26:11.634Z,838.06
2017-04-05T00:26:16.062Z,838.01
2017-04-05T00:26:20.484Z,838.05
2017-04-05T00:26:24.796Z,838.07
2017-04-05T00:26:29.220Z,838.03
2017-04-05T00:26:33.648Z,837.99
2017-04-05T00:26:37.959Z,837.97
2017-04-05T00:26:42.384Z,837.97
2017-04-05T00:26:46.813Z,837.98
2017-04-05T00:26:51.127Z,838
2017-04-05T00:26:55.579Z,837.95
2017-04-05T00:27:00.005Z,838.01
2017-04-05T00:27:04.538Z,838.02
2017-04-05T00:27:08.844Z,838.02
2017-04-05T00:27:13.274Z,838.02
2017-04-05T00:27:17.587Z,837.97
2017-04-05T00:27:22.028Z,837.99
2017-04-05T00:27:26.457Z,837.99
2017-04-05T00:27:30.770Z,838.03
2017-04-05T00:27:35.078Z,838.04
2017-04-05T00:27:39.501Z,838.07
2017-04-05T00:27:43.925Z,837.99
2017-04-05T00:27:48.249Z,838.01
2017-04-05T00:27:52.722Z,838
2017-04-05T00:27:57.151Z,838
2017-04-05T00:28:01.879Z,837.99
2017-04-05T00:28:06.304Z,838.01
2017-04-05T00:28:10.615Z,838.01
2017-04-05T00:28:15.046Z,837.99
2017-04-05T00:28:19.471Z,838
2017-04-05T00:28:23.890Z,837.99
2017-04-05T00:28:28.313Z,837.94
2017-04-05T00:28:32.504Z,837.95
2017-04-05T00:28:36.960Z,838
2017-04-05T00:28:41.379Z,837.99
2017-04-05T00:28:45.798Z,837.97
2017-04-05T00:28:50.222Z,837.96
2017-04-05T00:28:54.535Z,838
2017-04-05T00:28:58.955Z,837.93
2017-04-05T00:29:03.384Z,837.97
2017-04-05T00:29:07.691Z,838.01
2017-04-05T00:29:11.999Z,837.99
2017-04-05T00:29:16.313Z,838.01
2017-04-05T00:29:20.742Z,837.97
2017-04-05T00:29:25.187Z,837.97
2017-04-05T00:29:29.622Z,837.99
2017-04-05T00:29:33.812Z,838
2017-04-05T00:29:38.245Z,837.99
2017-04-05T00:29:42.697Z,837.98
2017-04-05T00:29:47.117Z,837.99
2017-04-05T00:29:51.544Z,838.02
2017-04-05T00:29:55.853Z,838.01
2017-04-05T00:30:00.273Z,837.99
2017-04-05T00:30:04.702Z,837.99
2017-04-05T00:30:09.037Z,837.99
2017-04-05T00:30:13.457Z,838.03
2017-04-05T00:30:17.766Z,837.99
2017-04-05T00:30:22.078Z,838
2017-04-05T00:30:26.395Z,837.98
2017-04-05T00:30:30.815Z,837.97
2017-04-05T00:30:35.240Z,837.98
2017-04-05T00:30:39.676Z,837.96
2017-04-05T00:30:44.101Z,838
2017-04-05T00:30:48.525Z,837.98
2017-04-05T00:30:52.957Z,838.01
2017-04-05T00:30:57.393Z,837.97
2017-04-05T00:31:01.817Z,837.92
2017-04-05T00:31:06.247Z,837.92
2017-04-05T00:31:10.435Z,837.89
2017-04-05T00:31:14.861Z,837.88
2017-04-05T00:31:19.286Z,837.91
2017-04-05T00:31:23.707Z,837.97
2017-04-05T00:31:28.136Z,837.92
2017-04-05T00:31:32.558Z,837.97
2017-04-05T00:31:36.869Z,837.92
2017-04-05T00:31:41.317Z,837.94
2017-04-05T00:31:45.750Z,837.94
2017-04-05T00:31:50.176Z,837.95
2017-04-05T00:31:54.617Z,837.96
2017-04-05T00:31:59.039Z,837.96
2017-04-05T00:32:03.356Z,837.93
2017-04-05T00:32:07.784Z,837.93
2017-04-05T00:32:12.093Z,837.93
2017-04-05T00:32:16.398Z,837.91
2017-04-05T00:32:20.826Z,837.91
2017-04-05T00:32:25.261Z,837.94
2017-04-05T00:32:29.570Z,837.88
2017-04-05T00:32:33.995Z,837.84
2017-04-05T00:32:38.425Z,837.91
2017-04-05T00:32:42.727Z,837.89
2017-04-05T00:32:47.146Z,837.9
2017-04-05T00:32:51.341Z,837.89
2017-04-05T00:32:55.764Z,837.91
2017-04-05T00:33:00.184Z,837.89
2017-04-05T00:33:04.615Z,837.9
2017-04-05T00:33:09.042Z,837.91
2017-04-05T00:33:13.471Z,837.85
2017-04-05T00:33:17.900Z,837.9
2017-04-05T00:33:22.353Z,837.86
2017-04-05T00:33:26.661Z,837.84
2017-04-05T00:33:31.085Z,837.84
2017-04-05T00:33:35.510Z,837.84
2017-04-05T00:33:39.954Z,837.83
2017-04-05T00:33:44.148Z,837.83
2017-04-05T00:33:48.574Z,837.84
2017-04-05T00:33:52.883Z,837.84
2017-04-05T00:33:57.315Z,837.83
2017-04-05T00:34:01.743Z,837.9
2017-04-05T00:34:06.052Z,837.91
2017-04-05T00:34:10.469Z,837.83
2017-04-05T00:34:14.918Z,837.81
2017-04-05T00:34:19.345Z,837.89
2017-04-05T00:34:23.773Z,837.88
2017-04-05T00:34:28.080Z,837.86
2017-04-05T00:34:32.534Z,837.85
2017-04-05T00:34:36.965Z,837.87
2017-04-05T00:34:41.269Z,837.89
2017-04-05T00:34:45.695Z,837.85
2017-04-05T00:34:50.131Z,837.86
2017-04-05T00:34:54.556Z,837.88
2017-04-05T00:34:58.973Z,837.87
2017-04-05T00:35:03.482Z,837.86
2017-04-05T00:35:07.912Z,837.84
2017-04-05T00:35:12.107Z,837.91
2017-04-05T00:35:16.537Z,837.87
2017-04-05T00:35:20.851Z,837.91
2017-04-05T00:35:25.285Z,837.88
2017-04-05T00:35:29.709Z,837.86
2017-04-05T00:35:33.897Z,837.88
2017-04-05T00:35:38.319Z,837.89
2017-04-05T00:35:42.651Z,837.84
2017-04-05T00:35:47.084Z,837.87
2017-04-05T00:35:51.519Z,837.87
2017-04-05T00:35:55.947Z,837.87
2017-04-05T00:36:00.379Z,837.85
2017-04-05T00:36:04.692Z,837.87
2017-04-05T00:36:08.879Z,837.86
2017-04-05T00:36:13.303Z,837.87
2017-04-05T00:36:17.729Z,837.88
2017-04-05T00:36:22.040Z,837.85
2017-04-05T00:36:26.355Z,837.85
2017-04-05T00:36:30.777Z,837.84
2017-04-05T00:36:35.201Z,837.86
2017-04-05T00:36:39.652Z,837.82
2017-04-05T00:36:44.071Z,837.83
2017-04-05T00:36:48.497Z,837.84
2017-04-05T00:36:52.933Z,837.83
2017-04-05T00:36:57.358Z,837.85
2017-04-05T00:37:01.936Z,837.83
2017-04-05T00:37:06.248Z,837.85
2017-04-05T00:37:10.705Z,837.86
2017-04-05T00:37:15.013Z,837.84
2017-04-05T00:37:19.444Z,837.83
2017-04-05T00:37:23.871Z,837.86
2017-04-05T00:37:28.179Z,837.84
2017-04-05T00:37:32.487Z,837.82
2017-04-05T00:37:36.799Z,837.87
2017-04-05T00:37:41.229Z,837.84
2017-04-05T00:37:45.654Z,837.81
2017-04-05T00:37:49.957Z,837.86
2017-04-05T00:37:54.263Z,837.8
2017-04-05T00:37:58.700Z,837.84
2017-04-05T00:38:03.275Z,837.85
2017-04-05T00:38:07.464Z,837.81
2017-04-05T00:38:11.890Z,837.78
2017-04-05T00:38:16.199Z,837.76
2017-04-05T00:38:20.266Z,837.77
2017-04-05T00:38:24.576Z,837.78
2017-04-05T00:38:29.001Z,837.78
2017-04-05T00:38:33.315Z,837.74
2017-04-05T00:38:37.737Z,837.81
2017-04-05T00:38:42.044Z,837.79
2017-04-05T00:38:46.470Z,837.8
2017-04-05T00:38:50.924Z,837.81
2017-04-05T00:38:55.348Z,837.82
2017-04-05T00:38:59.766Z,837.78
2017-04-05T00:39:04.195Z,837.81
2017-04-05T00:39:08.626Z,837.79
2017-04-05T00:39:13.056Z,837.81
2017-04-05T00:39:17.481Z,837.8
2017-04-05T00:39:21.788Z,837.77
2017-04-05T00:39:26.218Z,837.82
2017-04-05T00:39:30.643Z,837.81
2017-04-05T00:39:35.073Z,837.81
2017-04-05T00:39:39.501Z,837.82
2017-04-05T00:39:43.960Z,837.8
2017-04-05T00:39:48.384Z,837.8
2017-04-05T00:39:52.571Z,837.82
2017-04-05T00:39:56.991Z,837.81
2017-04-05T00:40:01.423Z,837.77
2017-04-05T00:40:05.849Z,837.77
2017-04-05T00:40:10.285Z,837.8
2017-04-05T00:40:14.711Z,837.77
2017-04-05T00:40:19.024Z,837.8
2017-04-05T00:40:23.333Z,837.82
2017-04-05T00:40:27.640Z,837.78
2017-04-05T00:40:32.062Z,837.8
2017-04-05T00:40:36.491Z,837.8
2017-04-05T00:40:40.912Z,837.79
2017-04-05T00:40:45.334Z,837.79
2017-04-05T00:40:49.759Z,837.79
2017-04-05T00:40:54.073Z,837.77
2017-04-05T00:40:58.385Z,837.82
2017-04-05T00:41:02.813Z,837.8
2017-04-05T00:41:07.125Z,837.76
2017-04-05T00:41:11.546Z,837.78
2017-04-05T00:41:15.732Z,837.79
2017-04-05T00:41:20.161Z,837.8
2017-04-05T00:41:24.593Z,837.78
2017-04-05T00:41:29.017Z,837.78
2017-04-05T00:41:33.205Z,837.77
2017-04-05T00:41:37.635Z,837.76
2017-04-05T00:41:42.067Z,837.79
2017-04-05T00:41:46.489Z,837.8
2017-04-05T00:41:50.910Z,837.74
2017-04-05T00:41:55.333Z,837.76
2017-04-05T00:41:59.768Z,837.78
2017-04-05T00:42:04.276Z,837.79
2017-04-05T00:42:08.704Z,837.79
2017-04-05T00:42:13.131Z,837.75
2017-04-05T00:42:17.559Z,837.78
2017-04-05T00:42:21.749Z,837.73
2017-04-05T00:42:26.059Z,837.72
2017-04-05T00:42:30.479Z,837.7
2017-04-05T00:42:34.788Z,837.73
2017-04-05T00:42:39.093Z,837.76
2017-04-05T00:42:43.530Z,837.78
2017-04-05T00:42:47.952Z,837.78
2017-04-05T00:42:52.426Z,837.78
2017-04-05T00:42:56.853Z,837.76
2017-04-05T00:43:01.280Z,837.76
2017-04-05T00:43:05.707Z,837.75
2017-04-05T00:43:09.778Z,837.75
2017-04-05T00:43:14.200Z,837.71
2017-04-05T00:43:18.632Z,837.79
2017-04-05T00:43:22.824Z,837.78
2017-04-05T00:43:27.252Z,837.78
2017-04-05T00:43:31.675Z,837.76
2017-04-05T00:43:35.982Z,837.76
2017-04-05T00:43:40.413Z,837.71
2017-04-05T00:43:44.835Z,837.77
2017-04-05T00:43:49.257Z,837.76
2017-04-05T00:43:53.564Z,837.78
2017-04-05T00:43:57.992Z,837.79
2017-04-05T00:44:02.456Z,837.78
2017-04-05T00:44:06.642Z,837.77
2017-04-05T00:44:10.832Z,837.79
2017-04-05T00:44:15.139Z,837.78
2017-04-05T00:44:19.585Z,837.8
2017-04-05T00:44:24.016Z,837.74
2017-04-05T00:44:28.437Z,837.77
2017-04-05T00:44:32.864Z,837.74
2017-04-05T00:44:37.296Z,837.78
2017-04-05T00:44:41.719Z,837.8
2017-04-05T00:44:46.139Z,837.75
2017-04-05T00:44:50.569Z,837.8
2017-04-05T00:44:54.992Z,837.81
2017-04-05T00:44:59.450Z,837.8
2017-04-05T00:45:03.874Z,837.81
2017-04-05T00:45:08.308Z,837.78
2017-04-05T00:45:12.737Z,837.78
2017-04-05T00:45:17.166Z,837.8
2017-04-05T00:45:21.484Z,837.81
2017-04-05T00:45:25.909Z,837.81
2017-04-05T00:45:30.221Z,837.76
2017-04-05T00:45:34.658Z,837.79
2017-04-05T00:45:39.078Z,837.8
2017-04-05T00:45:43.154Z,837.83
2017-04-05T00:45:47.583Z,837.81
2017-04-05T00:45:52.010Z,837.8
2017-04-05T00:45:56.436Z,837.77
2017-04-05T00:46:00.862Z,837.82
2017-04-05T00:46:05.394Z,837.84
2017-04-05T00:46:09.702Z,837.8
2017-04-05T00:46:14.122Z,837.77
2017-04-05T00:46:18.552Z,837.8
2017-04-05T00:46:22.905Z,837.76
2017-04-05T00:46:27.336Z,837.78
2017-04-05T00:46:31.647Z,837.77
2017-04-05T00:46:35.964Z,837.81
2017-04-05T00:46:40.392Z,837.77
2017-04-05T00:46:44.815Z,837.8
2017-04-05T00:46:49.271Z,837.81
2017-04-05T00:46:53.694Z,837.75
2017-04-05T00:46:58.121Z,837.78
2017-04-05T00:47:02.553Z,837.75
2017-04-05T00:47:06.862Z,837.79
2017-04-05T00:47:11.288Z,837.79
2017-04-05T00:47:15.713Z,837.8
2017-04-05T00:47:20.141Z,837.8
2017-04-05T00:47:24.328Z,837.75
2017-04-05T00:47:28.777Z,837.76
2017-04-05T00:47:33.200Z,837.78
2017-04-05T00:47:37.624Z,837.75
2017-04-05T00:47:42.049Z,837.78
2017-04-05T00:47:46.476Z,837.77
2017-04-05T00:47:50.893Z,837.77
2017-04-05T00:47:55.314Z,837.75
2017-04-05T00:47:59.740Z,837.76
2017-04-05T00:48:04.322Z,837.8
2017-04-05T00:48:08.630Z,837.77
2017-04-05T00:48:13.051Z,837.79
2017-04-05T00:48:17.249Z,837.74
2017-04-05T00:48:21.557Z,837.79
2017-04-05T00:48:25.978Z,837.78
2017-04-05T00:48:30.290Z,837.77
2017-04-05T00:48:34.711Z,837.78
2017-04-05T00:48:39.131Z,837.74
2017-04-05T00:48:43.556Z,837.76
2017-04-05T00:48:48.014Z,837.77
2017-04-05T00:48:52.440Z,837.79
2017-04-05T00:48:56.869Z,837.78
2017-04-05T00:49:01.292Z,837.8
2017-04-05T00:49:05.605Z,837.83
2017-04-05T00:49:10.029Z,837.78
2017-04-05T00:49:14.334Z,837.78
2017-04-05T00:49:18.757Z,837.79
2017-04-05T00:49:23.198Z,837.8
2017-04-05T00:49:27.630Z,837.78
2017-04-05T00:49:32.053Z,837.79
2017-04-05T00:49:36.357Z,837.8
2017-04-05T00:49:40.801Z,837.83
2017-04-05T00:49:45.234Z,837.78
2017-04-05T00:49:49.664Z,837.76
2017-04-05T00:49:53.869Z,837.77
2017-04-05T00:49:58.293Z,837.77
2017-04-05T00:50:02.723Z,837.75
2017-04-05T00:50:07.034Z,837.76
2017-04-05T00:50:11.458Z,837.76
2017-04-05T00:50:15.765Z,837.75
2017-04-05T00:50:20.192Z,837.77
2017-04-05T00:50:24.518Z,837.79
2017-04-05T00:50:28.941Z,837.77
2017-04-05T00:50:33.367Z,837.77
2017-04-05T00:50:37.791Z,837.75
2017-04-05T00:50:42.218Z,837.74
2017-04-05T00:50:46.643Z,837.75
2017-04-05T00:50:50.841Z,837.75
2017-04-05T00:50:55.273Z,837.75
2017-04-05T00:50:59.696Z,837.72
2017-04-05T00:51:04.129Z,837.74
2017-04-05T00:51:08.438Z,837.76
2017-04-05T00:51:12.859Z,837.72
2017-04-05T00:51:17.281Z,837.76
2017-04-05T00:51:21.706Z,837.73
2017-04-05T00:51:26.022Z,837.73
2017-04-05T00:51:30.447Z,837.73
2017-04-05T00:51:34.751Z,837.76
2017-04-05T00:51:39.183Z,837.76
2017-04-05T00:51:43.613Z,837.72
2017-04-05T00:51:47.801Z,837.72
2017-04-05T00:51:52.232Z,837.76
2017-04-05T00:51:56.659Z,837.73
2017-04-05T00:52:01.091Z,837.75
2017-04-05T00:52:05.396Z,837.75
2017-04-05T00:52:09.819Z,837.72
2017-04-05T00:52:14.009Z,837.76
2017-04-05T00:52:18.319Z,837.76
2017-04-05T00:52:22.740Z,837.76
2017-04-05T00:52:27.045Z,837.75
2017-04-05T00:52:31.472Z,837.75
2017-04-05T00:52:35.803Z,837.75
2017-04-05T00:52:40.231Z,837.75
2017-04-05T00:52:44.531Z,837.74
2017-04-05T00:52:48.959Z,837.75
2017-04-05T00:52:53.390Z,837.72
2017-04-05T00:52:57.811Z,837.75
2017-04-05T00:53:02.232Z,837.75
2017-04-05T00:53:06.661Z,837.75
2017-04-05T00:53:11.103Z,837.74
2017-04-05T00:53:15.525Z,837.74
2017-04-05T00:53:19.947Z,837.71
2017-04-05T00:53:24.376Z,837.76
2017-04-05T00:53:28.815Z,837.74
2017-04-05T00:53:33.121Z,837.73
2017-04-05T00:53:37.438Z,837.75
2017-04-05T00:53:41.873Z,837.76
2017-04-05T00:53:46.062Z,837.74
2017-04-05T00:53:50.488Z,837.75
2017-04-05T00:53:54.794Z,837.74
2017-04-05T00:53:59.220Z,837.78
2017-04-05T00:54:03.951Z,837.76
2017-04-05T00:54:08.260Z,837.77
2017-04-05T00:54:12.682Z,837.75
2017-04-05T00:54:17.111Z,837.77
2017-04-05T00:54:21.420Z,837.74
2017-04-05T00:54:25.843Z,837.76
2017-04-05T00:54:30.155Z,837.74
2017-04-05T00:54:34.598Z,837.75
2017-04-05T00:54:38.899Z,837.75
2017-04-05T00:54:43.323Z,837.77
2017-04-05T00:54:47.746Z,837.77
2017-04-05T00:54:52.178Z,837.78
2017-04-05T00:54:56.480Z,837.76